An Xiu Shan — BRQV — position and weather

sailwx.info

Track history (hours):
 
Tides and Currents Weather Stations Pressure Air Temp Water Temp Dewpoint Dewpoint Depression Visibility Wind Speed Wind Dir Waves Ship Positions

An Xiu Shan

Last reported at 2014-Oct-30 20:31 UTC. Time now 2014-Oct-31 15:52 UTC.
Position N 36°39' E 122°51'.

Length 199 m; draft 12.7 m.

Type: Cargo ship. MMSI: 413195000.

Date/timePositionNaut miles runAvg speedWind from/ knotsBaromVisibWave heightAir tempDewpointWater temp
2014-Oct-30 20:31N 36°39' E 122°51'1010.1
2014-Oct-30 19:33N 36°48' E 122°54'1110.4
2014-Oct-30 18:26N 36°59' E 122°52'9 9.9
2014-Oct-30 17:33N 37°08' E 122°48'10 9.8
2014-Oct-30 16:33N 37°18' E 122°48'9 8.7
2014-Oct-30 15:32N 37°26' E 122°46'8 8.4
2014-Oct-30 14:33N 37°32' E 122°39'9 8.4
2014-Oct-30 13:32N 37°39' E 122°32'9 9.1
2014-Oct-30 12:33N 37°44' E 122°23'19 9.4
2014-Oct-30 10:32N 37°55' E 122°04'3710.9
2014-Oct-30 07:11N 38°17' E 121°26'114 2.4
2014-Oct-28 08:04N 39°42' E 119°48'3 4.9
2014-Oct-28 07:22N 39°45' E 119°49'0 0.0
2014-Oct-28 06:28N 39°45' E 119°49'0 0.1
2014-Oct-28 05:28N 39°45' E 119°49'0 0.1
2014-Oct-28 04:28N 39°45' E 119°48'0 0.0
2014-Oct-28 02:10N 39°45' E 119°48'0 0.0
2014-Oct-28 01:10N 39°45' E 119°48'0 0.1
2014-Oct-28 00:28N 39°45' E 119°49'0 0.1
2014-Oct-27 23:28N 39°45' E 119°49'0 0.0
2014-Oct-27 22:10N 39°45' E 119°49'0 0.0
2014-Oct-27 21:28N 39°45' E 119°49'0 0.0
2014-Oct-27 20:28N 39°45' E 119°49'0 0.0
2014-Oct-27 19:28N 39°45' E 119°49'0 0.0
2014-Oct-27 18:16N 39°45' E 119°48'0 0.1
2014-Oct-27 17:16N 39°45' E 119°48'0 0.0
2014-Oct-27 16:28N 39°45' E 119°48'0 0.0
2014-Oct-27 15:28N 39°45' E 119°48'0 0.0
2014-Oct-27 14:28N 39°45' E 119°48'0 0.0
2014-Oct-27 13:28N 39°45' E 119°48'0 0.0
2014-Oct-27 12:28N 39°45' E 119°48'0 0.1
2014-Oct-27 11:22N 39°45' E 119°48'0 0.1
2014-Oct-27 10:28N 39°45' E 119°49'0 0.5
2014-Oct-27 09:32N 39°45' E 119°49'10 9.2
2014-Oct-27 08:30N 39°39' E 119°58'10710.3
2014-Oct-26 22:08N 38°19' E 121°30'2110.6
2014-Oct-26 20:11N 38°07' E 121°51'710.3
2014-Oct-26 19:30N 38°02' E 121°58'19 9.7
2014-Oct-26 17:33N 37°53' E 122°19'9 8.8
2014-Oct-26 16:34N 37°48' E 122°28'9 8.7
2014-Oct-26 15:33N 37°43' E 122°37'8 8.1
2014-Oct-26 14:31N 37°37' E 122°44'11 8.7
2014-Oct-26 13:18N 37°28' E 122°52'7 9.1
2014-Oct-26 12:33N 37°21' E 122°54'1010.0
2014-Oct-26 11:32N 37°11' E 122°54'1010.5
2014-Oct-26 10:33N 37°01' E 122°54'1110.4
2014-Oct-26 09:33N 36°51' E 122°54'1111.3
2014-Oct-26 08:34N 36°39' E 122°53'1410.9
2014-Oct-26 07:17N 36°26' E 122°53'7710.9
2014-Oct-26 00:14N 35°09' E 122°56'28311.9
2014-Oct-25 00:21N 30°25' E 123°00'2111.3
2014-Oct-24 22:31N 30°05' E 122°58'1310.8
2014-Oct-24 21:20N 29°53' E 122°52'910.9
2014-Oct-24 20:30N 29°44' E 122°50'1010.6
2014-Oct-24 19:33N 29°34' E 122°47'2411.2
2014-Oct-24 17:23N 29°11' E 122°39'1012.1
2014-Oct-24 16:32N 29°02' E 122°34'1512.3
2014-Oct-24 15:17N 28°47' E 122°28'24410.5
2014-Oct-23 16:06N 25°22' E 119°60'6 8.3
2014-Oct-23 15:23N 25°17' E 119°56'19 8.8
2014-Oct-23 13:11N 25°03' E 119°42'47 9.7
2014-Oct-23 08:24N 24°38' E 118°59'17 9.0
2014-Oct-23 06:32N 24°27' E 118°45'8 7.5
2014-Oct-23 05:28N 24°21' E 118°40'6 6.6
2014-Oct-23 04:33N 24°17' E 118°35'7 6.7
2014-Oct-23 03:33N 24°12' E 118°29'8 7.2
2014-Oct-23 02:28N 24°07' E 118°23'7 7.6
2014-Oct-23 01:32N 24°02' E 118°18'10 8.8
2014-Oct-23 00:23N 23°56' E 118°09'9 9.3
2014-Oct-22 23:25N 23°51' E 118°01'8 8.9
2014-Oct-22 22:32N 23°46' E 117°54'81 7.3
2014-Oct-22 11:32N 22°52' E 116°49'16910.6
2014-Oct-21 19:32N 21°58' E 113°55'1612.0
2014-Oct-21 18:10N 22°13' E 113°49'6 9.7
2014-Oct-21 17:33N 22°19' E 113°48'9 8.9
2014-Oct-21 16:33N 22°28' E 113°45'1211.8
2014-Oct-21 15:33N 22°39' E 113°41'2 0.8
2014-Oct-21 13:11N 22°41' E 113°40'0 0.0
2014-Oct-21 12:26N 22°41' E 113°40'0 0.0
2014-Oct-21 10:11N 22°41' E 113°40'0 0.0
2014-Oct-21 09:29N 22°41' E 113°40'0 0.0
2014-Oct-21 08:23N 22°41' E 113°40'0 0.0
2014-Oct-21 05:23N 22°41' E 113°40'  
Track history (hours):
 
Tides and Currents Weather Stations Pressure Air Temp Water Temp Dewpoint Dewpoint Depression Visibility Wind Speed Wind Dir Waves Ship Positions

An Xiu Shan

Last reported at 2014-Oct-30 20:31 UTC. Time now 2014-Oct-31 15:52 UTC.
Position N 36°39' E 122°51'.

Length 199 m; draft 12.7 m.

Type: Cargo ship. MMSI: 413195000.

Date/timePositionNaut miles runAvg speedWind from/ knotsBaromVisibWave heightAir tempDewpointWater temp
2014-Oct-30 20:31N 36°39' E 122°51'1010.1
2014-Oct-30 19:33N 36°48' E 122°54'1110.4
2014-Oct-30 18:26N 36°59' E 122°52'9 9.9
2014-Oct-30 17:33N 37°08' E 122°48'10 9.8
2014-Oct-30 16:33N 37°18' E 122°48'9 8.7
2014-Oct-30 15:32N 37°26' E 122°46'8 8.4
2014-Oct-30 14:33N 37°32' E 122°39'9 8.4
2014-Oct-30 13:32N 37°39' E 122°32'9 9.1
2014-Oct-30 12:33N 37°44' E 122°23'19 9.4
2014-Oct-30 10:32N 37°55' E 122°04'3710.9
2014-Oct-30 07:11N 38°17' E 121°26'114 2.4
2014-Oct-28 08:04N 39°42' E 119°48'3 4.9
2014-Oct-28 07:22N 39°45' E 119°49'0 0.0
2014-Oct-28 06:28N 39°45' E 119°49'0 0.1
2014-Oct-28 05:28N 39°45' E 119°49'0 0.1
2014-Oct-28 04:28N 39°45' E 119°48'0 0.0
2014-Oct-28 02:10N 39°45' E 119°48'0 0.0
2014-Oct-28 01:10N 39°45' E 119°48'0 0.1
2014-Oct-28 00:28N 39°45' E 119°49'0 0.1
2014-Oct-27 23:28N 39°45' E 119°49'0 0.0
2014-Oct-27 22:10N 39°45' E 119°49'0 0.0
2014-Oct-27 21:28N 39°45' E 119°49'0 0.0
2014-Oct-27 20:28N 39°45' E 119°49'0 0.0
2014-Oct-27 19:28N 39°45' E 119°49'0 0.0
2014-Oct-27 18:16N 39°45' E 119°48'0 0.1
2014-Oct-27 17:16N 39°45' E 119°48'0 0.0
2014-Oct-27 16:28N 39°45' E 119°48'0 0.0
2014-Oct-27 15:28N 39°45' E 119°48'0 0.0
2014-Oct-27 14:28N 39°45' E 119°48'0 0.0
2014-Oct-27 13:28N 39°45' E 119°48'0 0.0
2014-Oct-27 12:28N 39°45' E 119°48'0 0.1
2014-Oct-27 11:22N 39°45' E 119°48'0 0.1
2014-Oct-27 10:28N 39°45' E 119°49'0 0.5
2014-Oct-27 09:32N 39°45' E 119°49'10 9.2
2014-Oct-27 08:30N 39°39' E 119°58'10710.3
2014-Oct-26 22:08N 38°19' E 121°30'2110.6
2014-Oct-26 20:11N 38°07' E 121°51'710.3
2014-Oct-26 19:30N 38°02' E 121°58'19 9.7
2014-Oct-26 17:33N 37°53' E 122°19'9 8.8
2014-Oct-26 16:34N 37°48' E 122°28'9 8.7
2014-Oct-26 15:33N 37°43' E 122°37'8 8.1
2014-Oct-26 14:31N 37°37' E 122°44'11 8.7
2014-Oct-26 13:18N 37°28' E 122°52'7 9.1
2014-Oct-26 12:33N 37°21' E 122°54'1010.0
2014-Oct-26 11:32N 37°11' E 122°54'1010.5
2014-Oct-26 10:33N 37°01' E 122°54'1110.4
2014-Oct-26 09:33N 36°51' E 122°54'1111.3
2014-Oct-26 08:34N 36°39' E 122°53'1410.9
2014-Oct-26 07:17N 36°26' E 122°53'7710.9
2014-Oct-26 00:14N 35°09' E 122°56'28311.9
2014-Oct-25 00:21N 30°25' E 123°00'2111.3
2014-Oct-24 22:31N 30°05' E 122°58'1310.8
2014-Oct-24 21:20N 29°53' E 122°52'910.9
2014-Oct-24 20:30N 29°44' E 122°50'1010.6
2014-Oct-24 19:33N 29°34' E 122°47'2411.2
2014-Oct-24 17:23N 29°11' E 122°39'1012.1
2014-Oct-24 16:32N 29°02' E 122°34'1512.3
2014-Oct-24 15:17N 28°47' E 122°28'24410.5
2014-Oct-23 16:06N 25°22' E 119°60'6 8.3
2014-Oct-23 15:23N 25°17' E 119°56'19 8.8
2014-Oct-23 13:11N 25°03' E 119°42'47 9.7
2014-Oct-23 08:24N 24°38' E 118°59'17 9.0
2014-Oct-23 06:32N 24°27' E 118°45'8 7.5
2014-Oct-23 05:28N 24°21' E 118°40'6 6.6
2014-Oct-23 04:33N 24°17' E 118°35'7 6.7
2014-Oct-23 03:33N 24°12' E 118°29'8 7.2
2014-Oct-23 02:28N 24°07' E 118°23'7 7.6
2014-Oct-23 01:32N 24°02' E 118°18'10 8.8
2014-Oct-23 00:23N 23°56' E 118°09'9 9.3
2014-Oct-22 23:25N 23°51' E 118°01'8 8.9
2014-Oct-22 22:32N 23°46' E 117°54'81 7.3
2014-Oct-22 11:32N 22°52' E 116°49'16910.6
2014-Oct-21 19:32N 21°58' E 113°55'1612.0
2014-Oct-21 18:10N 22°13' E 113°49'6 9.7
2014-Oct-21 17:33N 22°19' E 113°48'9 8.9
2014-Oct-21 16:33N 22°28' E 113°45'1211.8
2014-Oct-21 15:33N 22°39' E 113°41'2 0.8
2014-Oct-21 13:11N 22°41' E 113°40'0 0.0
2014-Oct-21 12:26N 22°41' E 113°40'0 0.0
2014-Oct-21 10:11N 22°41' E 113°40'0 0.0
2014-Oct-21 09:29N 22°41' E 113°40'0 0.0
2014-Oct-21 08:23N 22°41' E 113°40'0 0.0
2014-Oct-21 05:23N 22°41' E 113°40'  

Dump ship's entire track history